Terminal Aerodrome Forecast
Issued by NWS

Current Version | Previous Version | Text Only | Print | Product List | Glossary On
Versions: 1 2 3 4 5 6 7 8 9 10 11 12 13 14 15 16 17 18 19 20 21 22
827
FTUS41 KPBZ 161120
TAFZZV
TAF
KZZV 161120Z 1612/1712 09003KT 5SM BR OVC040
     FM161500 07003KT P6SM OVC020
     FM161800 06003KT P6SM OVC010
     FM170300 13005KT 2SM -RA BR OVC008=

USA.gov is the U.S. government's official web portal to all federal, state and local government web resources and services.